Aérodrome :
LOGIN :

S'inscrire | Disclaimer

   EN    FR    IT 

 










Légende :    VFR   VFR Marginal   IFR   IFR Intensif   IFR Très Intensif
Visi : 
Plafond : 
>= 8 km
>= 3000ft
5 à 8 km
1000 à 3000 ft
1500m à 5 km
500 à 1000 ft
800 à 1500m
200 à 500 ft
< 800m
< 200 ft
Symboles :   Orages  Brouillard  Fortes neiges  Fortes précipitations  Vent > 20 kt
SIGMETs :   Divers  Orages  Givrage  Turbulence  Onde Orograph.  Cendres Volcan.







- Altitude de l'aérodrome : 245 ft


ETHS - Fassberg

DERNIER METAR :
  • 170720Z 29013KT 9999 BKN056 12/07 Q1015 BLU BLU TEMPO WHT

METARs EXPIRÉS :
  • 170620Z 27008KT 9999 SCT060 09/07 Q1016 BLU+BLU+ TEMPO WHT

TAF TAF ETHS
Valide du 17 à 08h jusqu'au 17 à 17h UTC


170719Z 1708/1717 28015KT 9999 NSW SCT025 BKN050
TEMPO 1708/1711 26015G25KT 5000 RA BKN015 BKN040
TEMPO 1711/1717 30018G33KT 5000 SHRA SCT015 BKN025TCU
Pas de NOTAMs connus pour ce terrain.



MET'MAP, la Météo Aéronautique d'un coup d'oeil ! - Copyright ORBIFLY Décembre 2007 - Disclaimer

ORBIFLY MET'MAP TEAM :

Programmation & Développement : Alexandra Zaïnal
Conception & Développement : Baudouin d'Aumeries
Co-Programmation & Développement : Marc-Olivier Méhu
Soutien technique & logistique : Manuel Goepfert

Contact : metmap@orbifly.com




SOURCES & CREDITS :

   NOAA